Time;durP1;ratioP1;P1;durP2;ratioP2;P2;SDS_P1;SDS_P2;PMS_P1;PMS_P2;Temp;Humidity;BMP_temperature;BMP_pressure;BME280_temperature;BME280_humidity;BME280_pressure;Samples;Min_cycle;Max_cycle;Signal;HPM_P1;HPM_P2
2023/03/04 00:01:12;;;;;;;;;;;2.60;99.90;;;;;;5031208;28;19925;-67
2023/03/04 00:03:37;;;;;;;;;;;2.60;99.90;;;;;;5023339;28;19913;-65
2023/03/04 00:06:03;;;;;;;;;;;2.70;99.90;;;;;;5029276;28;19920;-65
2023/03/04 00:08:29;;;;;;;;;;;2.60;99.90;;;;;;5031208;28;20504;-64
2023/03/04 00:10:55;;;;;;;;;;;2.50;99.90;;;;;;5033303;28;19914;-63
2023/03/04 00:13:21;;;;;;;;;;;2.50;99.90;;;;;;5032684;28;19928;-64
2023/03/04 00:15:46;;;;;;;;;;;2.40;99.90;;;;;;5027250;28;19921;-64
2023/03/04 00:18:12;;;;;;;;;;;2.40;99.90;;;;;;5029209;28;19966;-65
2023/03/04 00:20:37;;;;;;;;;;;2.40;99.90;;;;;;5030710;28;19913;-65
2023/03/04 00:23:03;;;;;;;;;;;2.40;99.90;;;;;;5028473;28;19984;-64
2023/03/04 00:25:28;;;;;;;;;;;2.40;99.90;;;;;;5031182;28;20379;-63
2023/03/04 00:27:54;;;;;;;;;;;2.40;99.90;;;;;;5030199;28;19913;-65
2023/03/04 00:30:19;;;;;;;;;;;2.50;99.90;;;;;;5030074;28;19921;-63
2023/03/04 00:32:44;;;;;;;;;;;2.40;99.90;;;;;;5029799;28;19917;-64
2023/03/04 00:35:10;;;;;;;;;;;2.40;99.90;;;;;;5031441;28;19939;-65
2023/03/04 00:37:35;;;;;;;;;;;2.50;99.90;;;;;;5031127;28;20070;-68
2023/03/04 00:40:01;;;;;;;;;;;2.50;99.90;;;;;;5026069;28;19929;-65
2023/03/04 00:42:26;;;;;;;;;;;2.50;99.90;;;;;;5032632;28;19986;-66
2023/03/04 00:44:52;;;;;;;;;;;2.50;99.90;;;;;;5036604;28;20589;-65
2023/03/04 00:47:17;;;;;;;;;;;2.50;99.90;;;;;;5024772;28;20260;-65
2023/03/04 00:49:43;;;;;;;;;;;2.50;99.90;;;;;;5027009;28;20074;-66
2023/03/04 00:52:09;;;;;;;;;;;2.60;99.90;;;;;;5026875;28;19920;-66
2023/03/04 00:54:34;;;;;;;;;;;2.50;99.90;;;;;;5029362;28;19963;-64
2023/03/04 00:57:00;;;;;;;;;;;2.60;99.90;;;;;;5027654;28;19917;-64
2023/03/04 00:59:25;;;;;;;;;;;2.60;99.90;;;;;;5027678;28;19913;-64
2023/03/04 01:01:51;;;;;;;;;;;2.50;99.90;;;;;;5027207;28;19917;-64
2023/03/04 01:04:16;;;;;;;;;;;2.30;99.90;;;;;;5028625;28;19936;-67
2023/03/04 01:06:41;;;;;;;;;;;2.40;99.90;;;;;;5028645;28;19917;-64
2023/03/04 01:09:07;;;;;;;;;;;2.30;99.90;;;;;;5029926;28;19917;-66
2023/03/04 01:11:33;;;;;;;;;;;2.40;99.90;;;;;;5028600;28;19917;-63
2023/03/04 01:13:58;;;;;;;;;;;2.40;99.90;;;;;;5031779;28;19921;-65
2023/03/04 01:16:23;;;;;;;;;;;2.50;99.90;;;;;;5027633;28;19940;-62
2023/03/04 01:18:49;;;;;;;;;;;2.50;99.90;;;;;;5030269;28;20035;-66
2023/03/04 01:21:14;;;;;;;;;;;2.50;99.90;;;;;;5028540;28;19920;-66
2023/03/04 01:23:40;;;;;;;;;;;2.60;99.90;;;;;;5028794;28;19913;-64
2023/03/04 01:26:05;;;;;;;;;;;2.70;99.90;;;;;;5029779;28;20375;-65
2023/03/04 01:28:34;;;;;;;;;;;2.80;99.90;;;;;;5029291;28;20237;-66
2023/03/04 01:31:00;;;;;;;;;;;2.70;99.90;;;;;;5029347;28;19928;-65
2023/03/04 01:33:26;;;;;;;;;;;2.70;99.90;;;;;;5029159;28;20303;-67
2023/03/04 01:35:51;;;;;;;;;;;2.70;99.90;;;;;;5026623;28;19925;-66
2023/03/04 01:38:16;;;;;;;;;;;2.70;99.90;;;;;;5029678;28;20437;-67
2023/03/04 01:40:42;;;;;;;;;;;2.80;99.90;;;;;;5027210;28;20286;-65
2023/03/04 01:43:10;;;;;;;;;;;3.00;99.90;;;;;;5033501;28;19913;-66
2023/03/04 01:45:35;;;;;;;;;;;3.10;99.90;;;;;;5028136;28;19927;-66
2023/03/04 01:48:01;;;;;;;;;;;3.20;99.90;;;;;;5029981;28;19917;-63
2023/03/04 01:50:32;;;;;;;;;;;3.30;99.90;;;;;;5027608;28;19917;-65
2023/03/04 01:52:58;;;;;;;;;;;3.30;99.90;;;;;;5027383;28;19917;-65
2023/03/04 01:55:23;;;;;;;;;;;3.30;99.90;;;;;;5025236;28;20399;-64
2023/03/04 01:57:49;;;;;;;;;;;3.40;99.90;;;;;;5024735;28;20001;-66
2023/03/04 02:00:31;;;;;;;;;;;3.40;99.90;;;;;;5025690;28;20302;-65
2023/03/04 02:03:03;;;;;;;;;;;3.40;99.90;;;;;;5027605;28;20000;-63
2023/03/04 02:05:28;;;;;;;;;;;3.50;99.90;;;;;;5026852;28;19913;-63
2023/03/04 02:07:54;;;;;;;;;;;3.50;99.90;;;;;;5029720;28;20276;-67
2023/03/04 02:10:20;;;;;;;;;;;3.50;99.90;;;;;;5029569;28;20306;-64
2023/03/04 02:12:45;;;;;;;;;;;3.50;99.90;;;;;;5027248;28;19920;-65
2023/03/04 02:15:11;;;;;;;;;;;3.60;99.90;;;;;;5025041;28;19939;-65
2023/03/04 02:17:36;;;;;;;;;;;3.60;99.90;;;;;;5027136;28;19925;-65
2023/03/04 02:20:11;;;;;;;;;;;3.60;99.90;;;;;;5028456;28;19926;-65
2023/03/04 02:22:38;;;;;;;;;;;3.60;99.90;;;;;;5026339;28;19925;-64
2023/03/04 02:25:10;;;;;;;;;;;3.60;99.90;;;;;;5028045;28;19913;-66
2023/03/04 02:27:35;;;;;;;;;;;3.70;99.90;;;;;;5030894;28;19917;-64
2023/03/04 02:30:01;;;;;;;;;;;3.60;99.90;;;;;;5024548;28;19914;-67
2023/03/04 02:32:26;;;;;;;;;;;3.60;99.90;;;;;;5023564;28;19917;-64
2023/03/04 02:34:52;;;;;;;;;;;3.70;99.90;;;;;;5026427;28;20377;-63
2023/03/04 02:37:18;;;;;;;;;;;3.70;99.90;;;;;;5018343;28;20059;-63
2023/03/04 02:39:44;;;;;;;;;;;3.70;99.90;;;;;;5025749;28;19920;-64
2023/03/04 02:42:10;;;;;;;;;;;3.80;99.90;;;;;;5028296;28;19913;-64
2023/03/04 02:44:36;;;;;;;;;;;3.80;99.90;;;;;;5029043;28;19920;-64
2023/03/04 02:47:03;;;;;;;;;;;3.80;99.90;;;;;;5026909;28;19913;-65
2023/03/04 02:49:30;;;;;;;;;;;3.90;99.90;;;;;;5028282;28;19975;-66
2023/03/04 02:52:00;;;;;;;;;;;3.80;99.90;;;;;;5026130;28;19920;-65
2023/03/04 02:54:26;;;;;;;;;;;3.80;99.90;;;;;;5027021;28;19959;-65
2023/03/04 02:56:52;;;;;;;;;;;3.90;99.90;;;;;;5029019;28;20311;-65
2023/03/04 02:59:19;;;;;;;;;;;3.90;99.90;;;;;;5024422;28;20478;-66
2023/03/04 03:01:44;;;;;;;;;;;3.80;99.90;;;;;;5024820;28;19918;-65
2023/03/04 03:04:11;;;;;;;;;;;3.80;99.90;;;;;;5024242;28;19936;-64
2023/03/04 03:06:37;;;;;;;;;;;3.80;99.90;;;;;;5027267;28;19928;-64
2023/03/04 03:09:02;;;;;;;;;;;3.90;99.90;;;;;;5020421;28;20303;-66
2023/03/04 03:11:28;;;;;;;;;;;3.90;99.90;;;;;;5022977;28;19952;-65
2023/03/04 03:13:53;;;;;;;;;;;3.90;99.90;;;;;;5031869;28;20004;-66
2023/03/04 03:16:19;;;;;;;;;;;3.90;99.90;;;;;;5027827;28;19932;-63
2023/03/04 03:18:44;;;;;;;;;;;3.90;99.90;;;;;;5030562;28;20505;-65
2023/03/04 03:21:10;;;;;;;;;;;3.90;99.90;;;;;;5036671;28;20339;-66
2023/03/04 03:23:35;;;;;;;;;;;3.90;99.90;;;;;;5031886;28;20307;-65
2023/03/04 03:26:01;;;;;;;;;;;3.90;99.90;;;;;;5030563;28;19967;-67
2023/03/04 03:28:27;;;;;;;;;;;3.90;99.90;;;;;;5033185;28;20279;-65
2023/03/04 03:30:52;;;;;;;;;;;3.90;99.90;;;;;;5033025;28;20374;-67
2023/03/04 03:33:18;;;;;;;;;;;3.90;99.90;;;;;;5032881;28;19936;-66
2023/03/04 03:35:43;;;;;;;;;;;3.90;99.90;;;;;;5029756;28;19924;-65
2023/03/04 03:38:09;;;;;;;;;;;3.90;99.90;;;;;;5032191;28;20458;-64
2023/03/04 03:40:34;;;;;;;;;;;4.00;99.90;;;;;;5028690;28;19932;-65
2023/03/04 03:43:00;;;;;;;;;;;4.00;99.90;;;;;;5030106;28;19939;-66
2023/03/04 03:45:25;;;;;;;;;;;4.00;99.90;;;;;;5026444;28;19948;-66
2023/03/04 03:47:50;;;;;;;;;;;3.90;99.90;;;;;;5031879;28;19913;-67
2023/03/04 03:50:16;;;;;;;;;;;3.90;99.90;;;;;;5031304;28;19981;-68
2023/03/04 03:52:41;;;;;;;;;;;4.00;99.90;;;;;;5046961;23;19928;-60
2023/03/04 03:55:07;;;;;;;;;;;4.00;99.90;;;;;;5040024;28;19924;-58
2023/03/04 03:57:33;;;;;;;;;;;4.00;99.90;;;;;;5041536;28;19932;-58
2023/03/04 03:59:58;;;;;;;;;;;4.00;99.90;;;;;;5051571;28;19964;-56
2023/03/04 04:02:23;;;;;;;;;;;4.10;99.90;;;;;;5048770;28;20370;-58
2023/03/04 04:04:49;;;;;;;;;;;4.10;99.90;;;;;;5040325;28;19940;-58
2023/03/04 04:07:14;;;;;;;;;;;4.10;99.90;;;;;;5034686;28;19917;-57
2023/03/04 04:09:40;;;;;;;;;;;4.00;99.90;;;;;;5038439;28;19917;-56
2023/03/04 04:12:06;;;;;;;;;;;4.00;99.90;;;;;;5043829;28;20422;-58
2023/03/04 04:14:31;;;;;;;;;;;4.00;99.90;;;;;;5036516;28;20275;-60
2023/03/04 04:16:57;;;;;;;;;;;4.00;99.90;;;;;;5035851;28;20314;-57
2023/03/04 04:19:22;;;;;;;;;;;4.10;99.90;;;;;;5037829;28;20375;-59
2023/03/04 04:21:48;;;;;;;;;;;4.00;99.90;;;;;;5039009;28;19913;-58
2023/03/04 04:24:13;;;;;;;;;;;4.00;99.90;;;;;;5044366;28;19944;-59
2023/03/04 04:26:39;;;;;;;;;;;4.10;99.90;;;;;;5040644;28;20368;-61
2023/03/04 04:29:04;;;;;;;;;;;4.00;99.90;;;;;;5037177;28;19913;-62
2023/03/04 04:31:30;;;;;;;;;;;4.00;99.90;;;;;;5040373;28;20000;-58
2023/03/04 04:33:55;;;;;;;;;;;4.00;99.90;;;;;;5039190;28;19975;-55
2023/03/04 04:36:21;;;;;;;;;;;4.00;99.90;;;;;;5038639;28;19940;-57
2023/03/04 04:38:48;;;;;;;;;;;4.10;99.90;;;;;;5040958;28;20013;-58
2023/03/04 04:41:18;;;;;;;;;;;4.10;99.90;;;;;;5037363;28;19917;-57
2023/03/04 04:43:44;;;;;;;;;;;4.10;99.90;;;;;;5037933;28;19982;-57
2023/03/04 04:46:09;;;;;;;;;;;4.10;99.90;;;;;;5041042;28;20374;-59
2023/03/04 04:48:35;;;;;;;;;;;4.10;99.90;;;;;;5038091;28;19913;-56
2023/03/04 04:51:00;;;;;;;;;;;4.10;99.90;;;;;;5037508;28;19913;-57
2023/03/04 04:53:25;;;;;;;;;;;4.10;99.90;;;;;;5046821;28;19959;-57
2023/03/04 04:55:51;;;;;;;;;;;4.10;99.90;;;;;;5056104;28;19917;-57
2023/03/04 04:58:16;;;;;;;;;;;4.20;99.90;;;;;;5062519;28;19999;-56
2023/03/04 05:00:42;;;;;;;;;;;4.20;99.90;;;;;;5055135;28;20492;-57
2023/03/04 05:03:07;;;;;;;;;;;4.20;99.90;;;;;;5058287;28;19962;-57
2023/03/04 05:05:33;;;;;;;;;;;;;;;;;;5056621;28;20007;-59
2023/03/04 05:07:59;;;;;;;;;;;;;;;;;;5057633;28;20375;-58
2023/03/04 05:10:25;;;;;;;;;;;;;;;;;;5065687;28;20560;-58
2023/03/04 05:12:51;;;;;;;;;;;;;;;;;;5056224;28;20397;-60
2023/03/04 05:15:16;;;;;;;;;;;4.20;99.90;;;;;;5060093;28;19956;-60
2023/03/04 05:17:42;;;;;;;;;;;4.20;99.90;;;;;;5042309;28;19930;-56
2023/03/04 05:20:08;;;;;;;;;;;4.20;99.90;;;;;;5053073;28;19955;-61
2023/03/04 05:22:33;;;;;;;;;;;4.30;99.90;;;;;;5056382;28;19916;-59
2023/03/04 05:24:59;;;;;;;;;;;4.30;99.90;;;;;;5063291;28;19996;-59
2023/03/04 05:27:24;;;;;;;;;;;4.40;99.90;;;;;;5054810;28;19931;-57
2023/03/04 05:29:50;;;;;;;;;;;4.50;99.90;;;;;;5057429;28;19912;-56
2023/03/04 05:32:15;;;;;;;;;;;4.50;99.90;;;;;;5053879;28;19909;-55
2023/03/04 05:34:41;;;;;;;;;;;4.50;99.90;;;;;;5056496;28;19928;-59
2023/03/04 05:37:06;;;;;;;;;;;4.60;99.90;;;;;;5057633;28;20366;-58
2023/03/04 05:39:32;;;;;;;;;;;4.60;99.90;;;;;;5054161;28;19917;-60
2023/03/04 05:41:57;;;;;;;;;;;4.60;99.90;;;;;;5053743;28;19909;-58
2023/03/04 05:44:22;;;;;;;;;;;4.70;99.90;;;;;;5064843;28;19927;-57
2023/03/04 05:46:48;;;;;;;;;;;4.70;99.90;;;;;;5056085;28;19913;-59
2023/03/04 05:49:13;;;;;;;;;;;4.70;99.90;;;;;;5040349;28;19913;-58
2023/03/04 05:51:39;;;;;;;;;;;4.70;99.90;;;;;;5065041;28;19916;-57
2023/03/04 05:54:04;;;;;;;;;;;4.70;99.90;;;;;;5059574;28;19924;-60
2023/03/04 05:56:32;;;;;;;;;;;4.80;99.90;;;;;;5061970;28;19969;-54
2023/03/04 05:58:58;;;;;;;;;;;4.80;99.90;;;;;;5056702;28;20008;-57
2023/03/04 06:01:24;;;;;;;;;;;4.80;99.90;;;;;;5057884;28;20114;-58
2023/03/04 06:03:49;;;;;;;;;;;4.80;99.90;;;;;;5057114;28;19923;-59
2023/03/04 06:06:15;;;;;;;;;;;4.80;99.90;;;;;;5051612;28;19916;-56
2023/03/04 06:08:40;;;;;;;;;;;4.80;99.90;;;;;;5059140;28;19982;-58
2023/03/04 06:11:06;;;;;;;;;;;4.80;99.90;;;;;;5057761;28;19912;-58
2023/03/04 06:13:31;;;;;;;;;;;4.90;99.90;;;;;;5058480;28;19920;-57
2023/03/04 06:15:57;;;;;;;;;;;4.90;99.90;;;;;;5057742;28;19931;-58
2023/03/04 06:18:23;;;;;;;;;;;4.90;99.90;;;;;;5061357;28;19982;-53
2023/03/04 06:20:49;;;;;;;;;;;4.90;99.90;;;;;;5062770;28;19913;-60
2023/03/04 06:23:14;;;;;;;;;;;4.90;99.90;;;;;;5058492;28;19916;-61
2023/03/04 06:25:39;;;;;;;;;;;4.90;99.90;;;;;;5063477;28;19913;-56
2023/03/04 06:28:05;;;;;;;;;;;5.00;99.90;;;;;;5057320;28;19927;-57
2023/03/04 06:30:30;;;;;;;;;;;4.90;99.90;;;;;;5058328;28;19921;-60
2023/03/04 06:32:56;;;;;;;;;;;5.00;99.90;;;;;;5056497;28;19913;-58
2023/03/04 06:35:21;;;;;;;;;;;5.00;99.90;;;;;;5056974;28;19913;-58
2023/03/04 06:37:47;;;;;;;;;;;5.00;99.90;;;;;;5055296;28;19963;-59
2023/03/04 06:40:13;;;;;;;;;;;5.00;99.90;;;;;;5059512;28;19939;-57
2023/03/04 06:42:39;;;;;;;;;;;5.00;99.90;;;;;;5058600;28;20007;-58
2023/03/04 06:45:05;;;;;;;;;;;5.10;99.90;;;;;;5058220;28;19962;-57
2023/03/04 06:47:30;;;;;;;;;;;5.00;99.90;;;;;;5052357;28;20047;-60
2023/03/04 06:49:56;;;;;;;;;;;5.10;99.90;;;;;;5063681;28;20039;-55
2023/03/04 06:52:22;;;;;;;;;;;5.00;99.90;;;;;;5060389;28;20333;-58
2023/03/04 06:54:47;;;;;;;;;;;5.00;99.90;;;;;;5061882;28;20390;-53
2023/03/04 06:57:12;;;;;;;;;;;5.10;99.90;;;;;;5066110;28;20389;-55
2023/03/04 06:59:38;;;;;;;;;;;5.10;99.90;;;;;;5063818;28;19913;-57
2023/03/04 07:02:04;;;;;;;;;;;5.10;99.90;;;;;;5060170;28;19932;-60
2023/03/04 07:04:29;;;;;;;;;;;5.10;99.90;;;;;;5064850;28;19920;-56
2023/03/04 07:06:55;;;;;;;;;;;5.10;99.90;;;;;;5063230;28;20592;-56
2023/03/04 07:09:20;;;;;;;;;;;5.10;99.90;;;;;;5068236;28;19958;-61
2023/03/04 07:11:46;;;;;;;;;;;5.10;99.90;;;;;;5062154;28;19943;-58
2023/03/04 07:14:11;;;;;;;;;;;5.10;99.90;;;;;;5061236;28;19957;-56
2023/03/04 07:16:37;;;;;;;;;;;5.10;99.90;;;;;;5062833;28;20027;-56
2023/03/04 07:19:02;;;;;;;;;;;5.10;99.90;;;;;;5063437;28;20268;-58
2023/03/04 07:21:28;;;;;;;;;;;5.20;99.90;;;;;;5065283;28;19952;-57
2023/03/04 07:23:53;;;;;;;;;;;5.10;99.90;;;;;;5065114;28;19916;-59
2023/03/04 07:26:19;;;;;;;;;;;5.10;99.90;;;;;;5057728;28;19913;-54
2023/03/04 07:28:44;;;;;;;;;;;5.10;99.90;;;;;;5060456;28;19916;-58
2023/03/04 07:31:21;;;;;;;;;;;5.10;99.90;;;;;;5055304;28;19912;-56
2023/03/04 07:33:46;;;;;;;;;;;5.10;99.90;;;;;;5054966;28;20271;-55
2023/03/04 07:36:13;;;;;;;;;;;5.20;99.90;;;;;;5060972;28;19924;-60
2023/03/04 07:38:42;;;;;;;;;;;5.20;99.90;;;;;;5058379;28;20332;-54
2023/03/04 07:41:07;;;;;;;;;;;5.20;99.90;;;;;;5058336;28;20012;-56
2023/03/04 07:43:33;;;;;;;;;;;5.20;99.90;;;;;;5058543;28;20445;-60
2023/03/04 07:46:00;;;;;;;;;;;5.20;99.90;;;;;;5061056;28;19921;-56
2023/03/04 07:48:26;;;;;;;;;;;5.30;99.90;;;;;;5067868;28;19913;-57
2023/03/04 07:51:01;;;;;;;;;;;5.30;99.90;;;;;;5058992;28;19976;-54
2023/03/04 07:53:26;;;;;;;;;;;5.30;99.90;;;;;;5061377;28;19943;-56
2023/03/04 07:55:52;;;;;;;;;;;5.30;99.90;;;;;;5064720;28;19924;-55
2023/03/04 07:58:18;;;;;;;;;;;5.30;99.90;;;;;;5058141;28;19948;-55
2023/03/04 08:00:44;;;;;;;;;;;5.30;99.90;;;;;;5061469;28;20271;-54
2023/03/04 08:03:09;;;;;;;;;;;5.30;99.90;;;;;;5062130;28;20046;-58
2023/03/04 08:05:37;;;;;;;;;;;5.40;99.90;;;;;;5070758;28;20280;-57
2023/03/04 08:08:03;;;;;;;;;;;5.30;99.90;;;;;;5062234;28;19923;-54
2023/03/04 08:10:28;;;;;;;;;;;5.30;99.90;;;;;;5059129;28;19917;-58
2023/03/04 08:12:54;;;;;;;;;;;5.40;99.90;;;;;;5061199;28;20009;-57
2023/03/04 08:15:19;;;;;;;;;;;5.40;99.90;;;;;;5054799;28;19919;-54
2023/03/04 08:17:45;;;;;;;;;;;5.40;99.90;;;;;;5062116;28;19924;-58
2023/03/04 08:20:10;;;;;;;;;;;5.40;99.90;;;;;;5066779;28;19916;-59
2023/03/04 08:22:36;;;;;;;;;;;5.40;99.90;;;;;;5070272;28;19916;-55
2023/03/04 08:25:01;;;;;;;;;;;5.50;99.90;;;;;;5051102;28;19913;-58
2023/03/04 08:27:27;;;;;;;;;;;5.50;99.90;;;;;;5053803;28;19901;-57
2023/03/04 08:29:52;;;;;;;;;;;5.50;99.90;;;;;;5070821;28;19923;-58
2023/03/04 08:32:18;;;;;;;;;;;5.50;99.90;;;;;;5071356;28;19912;-60
2023/03/04 08:34:43;;;;;;;;;;;5.50;99.90;;;;;;5068543;28;20318;-60
2023/03/04 08:37:09;;;;;;;;;;;5.60;99.90;;;;;;5073319;28;19924;-55
2023/03/04 08:39:35;;;;;;;;;;;5.60;99.90;;;;;;5052729;28;19913;-60
2023/03/04 08:42:00;;;;;;;;;;;5.60;99.90;;;;;;5074863;28;19935;-59
2023/03/04 08:44:26;;;;;;;;;;;5.60;99.90;;;;;;5067826;28;19919;-58
2023/03/04 08:46:51;;;;;;;;;;;5.60;99.90;;;;;;5068647;28;19924;-58
2023/03/04 08:49:17;;;;;;;;;;;5.60;99.90;;;;;;5075220;28;19913;-59
2023/03/04 08:51:44;;;;;;;;;;;5.60;99.90;;;;;;5064616;28;19935;-57
2023/03/04 08:54:09;;;;;;;;;;;5.60;99.90;;;;;;5068610;28;20437;-57
2023/03/04 08:56:35;;;;;;;;;;;5.60;99.90;;;;;;5067165;28;19971;-57
2023/03/04 08:59:00;;;;;;;;;;;5.60;99.90;;;;;;5069949;28;20338;-59
2023/03/04 09:01:26;;;;;;;;;;;5.60;99.90;;;;;;5070079;28;19913;-57
2023/03/04 09:03:51;;;;;;;;;;;5.50;99.90;;;;;;5047989;28;19919;-59
2023/03/04 09:06:17;;;;;;;;;;;5.50;99.90;;;;;;5067659;28;19919;-61
2023/03/04 09:08:43;;;;;;;;;;;5.50;99.90;;;;;;5065861;28;20433;-57
2023/03/04 09:11:09;;;;;;;;;;;5.60;99.90;;;;;;5072966;28;19967;-58
2023/03/04 09:13:35;;;;;;;;;;;5.70;99.90;;;;;;5071732;28;20195;-56
2023/03/04 09:16:01;;;;;;;;;;;5.70;99.90;;;;;;5071175;28;19931;-59
2023/03/04 09:18:26;;;;;;;;;;;5.80;99.90;;;;;;5074375;28;19952;-58
2023/03/04 09:20:52;;;;;;;;;;;5.80;99.90;;;;;;5067497;28;19980;-61
2023/03/04 09:23:18;;;;;;;;;;;5.90;99.90;;;;;;5067419;28;19991;-61
2023/03/04 09:25:45;;;;;;;;;;;5.90;99.90;;;;;;5069194;28;19924;-57
2023/03/04 09:28:11;;;;;;;;;;;6.00;99.90;;;;;;5068098;28;19916;-60
2023/03/04 09:30:36;;;;;;;;;;;6.00;99.90;;;;;;5076650;28;19935;-58
2023/03/04 09:33:03;;;;;;;;;;;6.10;99.90;;;;;;5072666;28;21272;-59
2023/03/04 09:35:29;;;;;;;;;;;6.20;99.90;;;;;;5072114;28;19916;-58
2023/03/04 09:37:55;;;;;;;;;;;6.10;99.90;;;;;;5067268;28;19920;-60
2023/03/04 09:40:21;;;;;;;;;;;6.00;99.90;;;;;;5063696;28;19913;-59
2023/03/04 09:42:52;;;;;;;;;;;6.10;99.90;;;;;;5073711;28;20262;-60
2023/03/04 09:45:20;;;;;;;;;;;6.10;99.90;;;;;;5051701;28;20022;-60
2023/03/04 09:47:47;;;;;;;;;;;6.20;99.90;;;;;;5063369;28;19913;-61
2023/03/04 09:50:13;;;;;;;;;;;6.30;99.90;;;;;;5061857;28;19991;-62
2023/03/04 09:53:01;;;;;;;;;;;6.40;99.90;;;;;;5061182;28;19921;-58
2023/03/04 09:55:30;;;;;;;;;;;6.50;99.90;;;;;;5068383;28;19952;-59
2023/03/04 09:57:56;;;;;;;;;;;6.50;99.90;;;;;;5066553;28;19922;-58
2023/03/04 10:00:31;;;;;;;;;;;6.50;99.90;;;;;;5060693;28;20259;-64
2023/03/04 10:02:57;;;;;;;;;;;6.50;99.90;;;;;;5064720;28;19928;-59
2023/03/04 10:05:23;;;;;;;;;;;6.40;99.90;;;;;;5065816;28;19917;-55
2023/03/04 10:07:55;;;;;;;;;;;6.40;99.90;;;;;;5066698;28;19915;-61
2023/03/04 10:10:24;;;;;;;;;;;6.50;99.90;;;;;;5061464;28;20009;-64
2023/03/04 10:12:52;;;;;;;;;;;6.50;99.90;;;;;;5050005;28;19925;-64
2023/03/04 10:15:30;;;;;;;;;;;6.50;99.90;;;;;;5056100;28;20445;-64
2023/03/04 10:18:01;;;;;;;;;;;6.40;99.90;;;;;;5053068;28;19917;-63
2023/03/04 10:20:30;;;;;;;;;;;6.50;99.90;;;;;;5058540;28;19913;-65
2023/03/04 10:22:57;;;;;;;;;;;6.50;99.90;;;;;;5051855;28;19991;-65
2023/03/04 10:25:24;;;;;;;;;;;6.50;99.90;;;;;;5054717;28;19917;-65
2023/03/04 10:27:49;;;;;;;;;;;6.50;99.90;;;;;;5050174;28;19913;-64
2023/03/04 10:30:20;;;;;;;;;;;6.50;99.90;;;;;;5057993;28;20011;-65
2023/03/04 10:32:46;;;;;;;;;;;6.50;99.90;;;;;;5051020;28;19921;-64
2023/03/04 10:35:12;;;;;;;;;;;6.60;99.90;;;;;;5057503;28;19912;-64
2023/03/04 10:37:44;;;;;;;;;;;6.60;99.90;;;;;;5056426;28;19925;-64
2023/03/04 10:40:20;;;;;;;;;;;6.60;99.90;;;;;;5055735;28;19913;-64
2023/03/04 10:42:47;;;;;;;;;;;6.60;99.90;;;;;;5054873;28;19913;-66
2023/03/04 10:45:20;;;;;;;;;;;6.60;99.90;;;;;;5055913;28;20003;-63
2023/03/04 10:47:51;;;;;;;;;;;6.60;99.90;;;;;;5055687;28;19921;-65
2023/03/04 10:50:20;;;;;;;;;;;6.70;99.90;;;;;;5053283;28;19919;-65
2023/03/04 10:52:48;;;;;;;;;;;6.80;99.90;;;;;;5046428;28;19961;-65
2023/03/04 10:55:22;;;;;;;;;;;6.90;99.90;;;;;;5039437;28;19921;-65
2023/03/04 10:57:49;;;;;;;;;;;6.90;99.90;;;;;;5043607;28;20026;-65
2023/03/04 11:00:21;;;;;;;;;;;7.10;99.90;;;;;;5054799;28;19921;-65
2023/03/04 11:02:47;;;;;;;;;;;7.00;99.90;;;;;;5059061;28;19917;-66
2023/03/04 11:05:20;;;;;;;;;;;7.00;99.90;;;;;;5058168;28;19967;-65
2023/03/04 11:07:50;;;;;;;;;;;7.00;99.90;;;;;;5053080;28;20333;-65
2023/03/04 11:10:17;;;;;;;;;;;6.90;99.90;;;;;;5064216;28;19913;-66
2023/03/04 11:12:47;;;;;;;;;;;7.00;99.90;;;;;;5053093;28;19912;-66
2023/03/04 11:15:17;;;;;;;;;;;7.00;99.90;;;;;;5062302;28;19912;-66
2023/03/04 11:17:45;;;;;;;;;;;7.10;99.90;;;;;;5052635;28;19951;-65
2023/03/04 11:20:29;;;;;;;;;;;7.20;99.90;;;;;;5053723;28;20361;-67
2023/03/04 11:22:56;;;;;;;;;;;7.20;99.90;;;;;;5049769;28;20397;-65
2023/03/04 11:25:39;;;;;;;;;;;7.20;99.90;;;;;;5038094;28;19924;-65
2023/03/04 11:28:10;;;;;;;;;;;7.30;99.90;;;;;;5053740;28;20501;-62
2023/03/04 11:30:46;;;;;;;;;;;7.30;99.90;;;;;;5056161;28;19917;-65
2023/03/04 11:33:14;;;;;;;;;;;7.20;99.90;;;;;;5055837;28;20432;-64
2023/03/04 11:35:47;;;;;;;;;;;7.30;99.90;;;;;;5059829;28;20388;-64
2023/03/04 11:38:24;;;;;;;;;;;7.30;99.90;;;;;;5064845;28;19923;-64
2023/03/04 11:40:53;;;;;;;;;;;7.30;99.90;;;;;;5056627;28;19908;-64
2023/03/04 11:43:24;;;;;;;;;;;7.20;99.90;;;;;;5049257;28;19920;-64
2023/03/04 11:45:49;;;;;;;;;;;7.20;99.90;;;;;;5048142;28;19939;-64
2023/03/04 11:48:33;;;;;;;;;;;7.30;99.90;;;;;;5052676;28;20668;-64
2023/03/04 11:51:12;;;;;;;;;;;7.30;99.90;;;;;;5051417;28;20439;-64
2023/03/04 11:53:52;;;;;;;;;;;7.30;99.90;;;;;;5057951;28;19928;-64
2023/03/04 11:56:20;;;;;;;;;;;7.30;99.90;;;;;;5055669;28;20019;-63
2023/03/04 11:58:53;;;;;;;;;;;7.30;99.90;;;;;;5055887;28;19945;-64
2023/03/04 12:01:36;;;;;;;;;;;7.20;99.90;;;;;;5059122;28;19924;-63
2023/03/04 12:04:20;;;;;;;;;;;7.20;99.90;;;;;;5042368;28;19927;-63
2023/03/04 12:06:54;;;;;;;;;;;7.20;99.90;;;;;;5058411;28;19917;-65
2023/03/04 12:09:19;;;;;;;;;;;7.20;99.90;;;;;;5058254;28;20141;-63
2023/03/04 12:11:52;;;;;;;;;;;7.30;99.90;;;;;;5061195;28;20289;-63
2023/03/04 12:14:21;;;;;;;;;;;7.30;99.90;;;;;;5063516;28;19927;-63
2023/03/04 12:16:58;;;;;;;;;;;7.30;99.90;;;;;;5063413;28;19985;-64
2023/03/04 12:19:24;;;;;;;;;;;;;;;;;;5054338;28;20338;-65
2023/03/04 12:22:11;;;;;;;;;;;7.40;99.90;;;;;;5056514;28;19948;-63
2023/03/04 12:24:55;;;;;;;;;;;7.50;99.90;;;;;;5057045;28;19921;-63
2023/03/04 12:27:29;;;;;;;;;;;7.60;99.90;;;;;;5057185;28;19920;-63
2023/03/04 12:29:57;;;;;;;;;;;7.60;99.90;;;;;;5058963;28;19966;-65
2023/03/04 12:32:23;;;;;;;;;;;7.70;99.90;;;;;;5058329;28;19923;-63
2023/03/04 12:34:51;;;;;;;;;;;7.80;99.90;;;;;;5055780;28;19916;-63
2023/03/04 12:37:16;;;;;;;;;;;7.80;99.90;;;;;;5061843;28;19923;-63
2023/03/04 12:40:01;;;;;;;;;;;7.90;99.90;;;;;;5056543;28;19912;-64
2023/03/04 12:42:45;;;;;;;;;;;7.90;99.90;;;;;;5065750;28;19920;-64
2023/03/04 12:45:24;;;;;;;;;;;7.90;99.90;;;;;;5058764;28;20302;-63
2023/03/04 12:48:01;;;;;;;;;;;8.00;99.90;;;;;;5045175;28;20370;-64
2023/03/04 12:50:37;;;;;;;;;;;7.90;99.90;;;;;;5062873;28;20420;-64
2023/03/04 12:53:19;;;;;;;;;;;7.90;99.90;;;;;;5057012;28;19956;-63
2023/03/04 12:55:45;;;;;;;;;;;7.80;99.90;;;;;;5044615;28;19924;-64
2023/03/04 12:58:17;;;;;;;;;;;7.80;99.90;;;;;;5060048;28;19920;-64
2023/03/04 13:00:50;;;;;;;;;;;7.90;99.90;;;;;;5052813;28;19980;-65
2023/03/04 13:03:20;;;;;;;;;;;8.00;99.90;;;;;;5035954;28;20381;-64
2023/03/04 13:06:08;;;;;;;;;;;8.10;99.90;;;;;;5055853;28;20329;-65
2023/03/04 13:08:48;;;;;;;;;;;8.20;99.90;;;;;;5035983;28;19916;-64
2023/03/04 13:11:40;;;;;;;;;;;8.30;99.90;;;;;;5041285;28;19917;-65
2023/03/04 13:14:13;;;;;;;;;;;8.30;99.90;;;;;;5044423;28;19943;-64
2023/03/04 13:16:40;;;;;;;;;;;8.30;99.90;;;;;;5057329;28;19924;-64
2023/03/04 13:40:07;;;;;;;;;;;8.30;99.90;;;;;;5801720;23;20901;-78
2023/03/04 13:48:12;;;;;;;;;;;8.40;99.90;;;;;;5836701;23;20422;-74
2023/03/04 13:50:40;;;;;;;;;;;8.40;99.90;;;;;;4959789;28;19936;-78
2023/03/04 13:53:24;;;;;;;;;;;8.40;99.90;;;;;;4976107;28;19956;-73
2023/03/04 13:56:16;;;;;;;;;;;8.30;99.90;;;;;;4986193;28;19961;-73
2023/03/04 13:58:42;;;;;;;;;;;8.30;99.90;;;;;;4965331;28;19914;-74
2023/03/04 14:01:20;;;;;;;;;;;8.30;99.90;;;;;;4982599;28;19921;-74
2023/03/04 14:03:46;;;;;;;;;;;8.20;99.90;;;;;;4967537;28;19928;-75
2023/03/04 14:06:22;;;;;;;;;;;8.20;99.90;;;;;;4985839;28;19914;-73
2023/03/04 14:08:48;;;;;;;;;;;8.20;99.90;;;;;;4982203;28;19914;-75
2023/03/04 14:11:25;;;;;;;;;;;8.20;99.90;;;;;;4981966;28;20671;-75
2023/03/04 14:13:51;;;;;;;;;;;8.10;99.90;;;;;;4967015;28;20379;-75
2023/03/04 14:16:20;;;;;;;;;;;8.10;99.90;;;;;;4984746;28;20428;-75
2023/03/04 14:24:00;;;;;;;;;;;8.00;99.90;;;;;;5229028;23;20869;-64
2023/03/04 14:26:26;;;;;;;;;;;7.90;99.90;;;;;;4976785;28;19922;-63
2023/03/04 14:28:55;;;;;;;;;;;8.00;99.90;;;;;;4966292;28;19977;-61
2023/03/04 14:31:26;;;;;;;;;;;7.90;99.90;;;;;;4977919;28;19917;-64
2023/03/04 14:33:58;;;;;;;;;;;7.90;99.90;;;;;;4976818;28;19918;-63
2023/03/04 14:36:24;;;;;;;;;;;7.90;99.90;;;;;;4985114;28;20587;-64
2023/03/04 14:38:52;;;;;;;;;;;7.90;99.90;;;;;;4983491;28;20295;-60
2023/03/04 14:41:28;;;;;;;;;;;7.90;99.90;;;;;;4985338;28;19918;-62
2023/03/04 14:43:56;;;;;;;;;;;7.80;99.90;;;;;;4981029;28;19922;-64
2023/03/04 14:46:24;;;;;;;;;;;7.90;99.90;;;;;;4966220;28;19921;-65
2023/03/04 14:48:51;;;;;;;;;;;7.90;99.90;;;;;;4979816;28;19918;-65
2023/03/04 14:51:30;;;;;;;;;;;8.00;99.90;;;;;;4985917;28;20407;-65
2023/03/04 14:53:57;;;;;;;;;;;8.00;99.90;;;;;;4982900;28;19925;-64
2023/03/04 14:56:29;;;;;;;;;;;8.00;99.90;;;;;;4987497;28;19922;-63
2023/03/04 14:58:56;;;;;;;;;;;8.00;99.90;;;;;;4987146;28;19914;-65
2023/03/04 15:01:28;;;;;;;;;;;7.90;99.90;;;;;;4985790;28;19921;-63
2023/03/04 15:03:56;;;;;;;;;;;7.80;99.90;;;;;;4980989;28;19946;-64
2023/03/04 15:06:23;;;;;;;;;;;7.80;99.90;;;;;;4986103;28;19969;-65